sensor_id;sensor_type;location;lat;lon;timestamp;pressure;altitude;pressure_sealevel;temperature
49593;BMP280;35499;51.482;4.264;2024-01-10T00:00:29;103055.88;;;-3.09
49593;BMP280;35499;51.482;4.264;2024-01-10T00:02:54;103054.34;;;-3.07
49593;BMP280;35499;51.482;4.264;2024-01-10T00:05:20;103048.34;;;-3.09
49593;BMP280;35499;51.482;4.264;2024-01-10T00:07:45;103042.31;;;-3.11
49593;BMP280;35499;51.482;4.264;2024-01-10T00:10:10;103043.06;;;-3.12
49593;BMP280;35499;51.482;4.264;2024-01-10T00:12:36;103044.63;;;-3.14
49593;BMP280;35499;51.482;4.264;2024-01-10T00:15:03;103040.22;;;-3.17
49593;BMP280;35499;51.482;4.264;2024-01-10T00:17:30;103037.59;;;-3.18
49593;BMP280;35499;51.482;4.264;2024-01-10T00:19:55;103034.13;;;-3.20
49593;BMP280;35499;51.482;4.264;2024-01-10T00:22:20;103036.63;;;-3.20
49593;BMP280;35499;51.482;4.264;2024-01-10T00:24:46;103035.00;;;-3.20
49593;BMP280;35499;51.482;4.264;2024-01-10T00:27:11;103020.56;;;-3.22
49593;BMP280;35499;51.482;4.264;2024-01-10T00:29:36;103027.22;;;-3.22
49593;BMP280;35499;51.482;4.264;2024-01-10T00:32:02;103027.22;;;-3.22
49593;BMP280;35499;51.482;4.264;2024-01-10T00:34:27;103026.44;;;-3.22
49593;BMP280;35499;51.482;4.264;2024-01-10T00:36:52;103027.34;;;-3.21
49593;BMP280;35499;51.482;4.264;2024-01-10T00:39:17;103019.66;;;-3.22
49593;BMP280;35499;51.482;4.264;2024-01-10T00:41:43;103014.56;;;-3.24
49593;BMP280;35499;51.482;4.264;2024-01-10T00:44:08;103012.06;;;-3.24
49593;BMP280;35499;51.482;4.264;2024-01-10T00:46:33;103006.78;;;-3.27
49593;BMP280;35499;51.482;4.264;2024-01-10T00:48:59;103011.59;;;-3.30
49593;BMP280;35499;51.482;4.264;2024-01-10T00:51:24;103015.41;;;-3.35
49593;BMP280;35499;51.482;4.264;2024-01-10T00:53:49;103016.78;;;-3.38
49593;BMP280;35499;51.482;4.264;2024-01-10T00:56:15;103003.91;;;-3.42
49593;BMP280;35499;51.482;4.264;2024-01-10T00:58:40;103007.72;;;-3.47
49593;BMP280;35499;51.482;4.264;2024-01-10T01:01:06;103007.72;;;-3.47
49593;BMP280;35499;51.482;4.264;2024-01-10T01:03:32;103001.06;;;-3.47
49593;BMP280;35499;51.482;4.264;2024-01-10T01:05:57;103002.69;;;-3.47
49593;BMP280;35499;51.482;4.264;2024-01-10T01:08:22;102996.78;;;-3.48
49593;BMP280;35499;51.482;4.264;2024-01-10T01:10:48;103002.59;;;-3.49
49593;BMP280;35499;51.482;4.264;2024-01-10T01:13:13;103006.75;;;-3.49
49593;BMP280;35499;51.482;4.264;2024-01-10T01:15:38;103003.22;;;-3.51
49593;BMP280;35499;51.482;4.264;2024-01-10T01:18:04;102996.44;;;-3.52
49593;BMP280;35499;51.482;4.264;2024-01-10T01:20:29;103008.03;;;-3.54
49593;BMP280;35499;51.482;4.264;2024-01-10T01:22:54;103004.75;;;-3.53
49593;BMP280;35499;51.482;4.264;2024-01-10T01:25:20;102990.47;;;-3.54
49593;BMP280;35499;51.482;4.264;2024-01-10T01:27:45;102993.94;;;-3.52
49593;BMP280;35499;51.482;4.264;2024-01-10T01:30:11;102996.69;;;-3.49
49593;BMP280;35499;51.482;4.264;2024-01-10T01:32:37;102990.25;;;-3.46
49593;BMP280;35499;51.482;4.264;2024-01-10T01:35:02;102988.84;;;-3.42
49593;BMP280;35499;51.482;4.264;2024-01-10T01:37:28;102996.38;;;-3.42
49593;BMP280;35499;51.482;4.264;2024-01-10T01:39:53;102998.13;;;-3.41
49593;BMP280;35499;51.482;4.264;2024-01-10T01:42:18;103001.38;;;-3.42
49593;BMP280;35499;51.482;4.264;2024-01-10T01:44:44;102997.13;;;-3.43
49593;BMP280;35499;51.482;4.264;2024-01-10T01:47:09;102988.63;;;-3.45
49593;BMP280;35499;51.482;4.264;2024-01-10T01:49:35;102991.88;;;-3.46
49593;BMP280;35499;51.482;4.264;2024-01-10T01:52:01;102986.88;;;-3.46
49593;BMP280;35499;51.482;4.264;2024-01-10T01:54:26;102989.25;;;-3.48
49593;BMP280;35499;51.482;4.264;2024-01-10T01:56:52;102984.91;;;-3.50
49593;BMP280;35499;51.482;4.264;2024-01-10T01:59:18;102998.34;;;-3.50
49593;BMP280;35499;51.482;4.264;2024-01-10T02:01:44;102994.28;;;-3.48
49593;BMP280;35499;51.482;4.264;2024-01-10T02:04:09;102984.22;;;-3.48
49593;BMP280;35499;51.482;4.264;2024-01-10T02:06:35;102988.38;;;-3.48
49593;BMP280;35499;51.482;4.264;2024-01-10T02:09:00;102985.13;;;-3.47
49593;BMP280;35499;51.482;4.264;2024-01-10T02:11:26;102989.16;;;-3.49
49593;BMP280;35499;51.482;4.264;2024-01-10T02:13:52;102987.41;;;-3.50
49593;BMP280;35499;51.482;4.264;2024-01-10T02:16:19;102985.88;;;-3.48
49593;BMP280;35499;51.482;4.264;2024-01-10T02:18:45;102988.38;;;-3.48
49593;BMP280;35499;51.482;4.264;2024-01-10T02:21:11;102987.63;;;-3.47
49593;BMP280;35499;51.482;4.264;2024-01-10T02:23:36;102975.81;;;-3.48
49593;BMP280;35499;51.482;4.264;2024-01-10T02:26:01;102985.88;;;-3.48
49593;BMP280;35499;51.482;4.264;2024-01-10T02:28:27;102984.91;;;-3.50
49593;BMP280;35499;51.482;4.264;2024-01-10T02:30:54;102991.56;;;-3.51
49593;BMP280;35499;51.482;4.264;2024-01-10T02:33:19;102980.63;;;-3.51
49593;BMP280;35499;51.482;4.264;2024-01-10T02:35:45;102983.13;;;-3.51
49593;BMP280;35499;51.482;4.264;2024-01-10T02:38:10;102979.75;;;-3.52
49593;BMP280;35499;51.482;4.264;2024-01-10T02:40:36;102987.16;;;-3.53
49593;BMP280;35499;51.482;4.264;2024-01-10T02:43:01;102987.97;;;-3.54
49593;BMP280;35499;51.482;4.264;2024-01-10T02:45:26;102981.06;;;-3.57
49593;BMP280;35499;51.482;4.264;2024-01-10T02:47:52;102982.56;;;-3.58
49593;BMP280;35499;51.482;4.264;2024-01-10T02:50:17;102975.69;;;-3.61
49593;BMP280;35499;51.482;4.264;2024-01-10T02:52:42;102984.84;;;-3.61
49593;BMP280;35499;51.482;4.264;2024-01-10T02:55:08;102981.25;;;-3.65
49593;BMP280;35499;51.482;4.264;2024-01-10T02:57:33;102969.34;;;-3.67
49593;BMP280;35499;51.482;4.264;2024-01-10T02:59:58;102975.91;;;-3.69
49593;BMP280;35499;51.482;4.264;2024-01-10T03:02:24;102967.25;;;-3.73
49593;BMP280;35499;51.482;4.264;2024-01-10T03:04:49;102966.50;;;-3.72
49593;BMP280;35499;51.482;4.264;2024-01-10T03:07:15;102968.03;;;-3.74
49593;BMP280;35499;51.482;4.264;2024-01-10T03:09:40;102961.25;;;-3.75
49593;BMP280;35499;51.482;4.264;2024-01-10T03:12:06;102951.22;;;-3.75
49593;BMP280;35499;51.482;4.264;2024-01-10T03:14:33;102953.72;;;-3.75
49593;BMP280;35499;51.482;4.264;2024-01-10T03:16:58;102959.50;;;-3.75
49593;BMP280;35499;51.482;4.264;2024-01-10T03:19:23;102949.22;;;-3.78
49593;BMP280;35499;51.482;4.264;2024-01-10T03:21:49;102945.75;;;-3.80
49593;BMP280;35499;51.482;4.264;2024-01-10T03:24:14;102951.63;;;-3.80
49593;BMP280;35499;51.482;4.264;2024-01-10T03:26:39;102957.53;;;-3.79
49593;BMP280;35499;51.482;4.264;2024-01-10T03:29:05;102959.25;;;-3.78
49593;BMP280;35499;51.482;4.264;2024-01-10T03:31:30;102943.22;;;-3.80
49593;BMP280;35499;51.482;4.264;2024-01-10T03:33:56;102944.97;;;-3.79
49593;BMP280;35499;51.482;4.264;2024-01-10T03:36:23;102951.63;;;-3.80
49593;BMP280;35499;51.482;4.264;2024-01-10T03:38:48;102950.75;;;-3.80
49593;BMP280;35499;51.482;4.264;2024-01-10T03:41:14;102938.09;;;-3.82
49593;BMP280;35499;51.482;4.264;2024-01-10T03:43:40;102951.38;;;-3.83
49593;BMP280;35499;51.482;4.264;2024-01-10T03:46:06;102942.00;;;-3.85
49593;BMP280;35499;51.482;4.264;2024-01-10T03:48:31;102943.44;;;-3.89
49593;BMP280;35499;51.482;4.264;2024-01-10T03:50:56;102942.31;;;-3.92
49593;BMP280;35499;51.482;4.264;2024-01-10T03:53:22;102952.13;;;-3.95
49593;BMP280;35499;51.482;4.264;2024-01-10T03:55:47;102951.13;;;-3.97
49593;BMP280;35499;51.482;4.264;2024-01-10T03:58:12;102945.88;;;-4.00
49593;BMP280;35499;51.482;4.264;2024-01-10T04:00:38;102952.41;;;-4.02
49593;BMP280;35499;51.482;4.264;2024-01-10T04:03:03;102942.91;;;-4.06
49593;BMP280;35499;51.482;4.264;2024-01-10T04:05:28;102930.16;;;-4.09
49593;BMP280;35499;51.482;4.264;2024-01-10T04:07:54;102938.66;;;-4.07
49593;BMP280;35499;51.482;4.264;2024-01-10T04:10:22;102938.66;;;-4.07
49593;BMP280;35499;51.482;4.264;2024-01-10T04:12:47;102935.16;;;-4.09
49593;BMP280;35499;51.482;4.264;2024-01-10T04:15:12;102928.63;;;-4.07
49593;BMP280;35499;51.482;4.264;2024-01-10T04:17:38;102925.13;;;-4.09
49593;BMP280;35499;51.482;4.264;2024-01-10T04:20:04;102921.22;;;-4.05
49593;BMP280;35499;51.482;4.264;2024-01-10T04:22:29;102928.06;;;-4.03
49593;BMP280;35499;51.482;4.264;2024-01-10T04:24:59;102920.56;;;-4.03
49593;BMP280;35499;51.482;4.264;2024-01-10T04:27:25;102924.69;;;-4.03
49593;BMP280;35499;51.482;4.264;2024-01-10T04:29:51;102916.31;;;-4.04
49593;BMP280;35499;51.482;4.264;2024-01-10T04:32:16;102929.72;;;-4.03
49593;BMP280;35499;51.482;4.264;2024-01-10T04:34:41;102922.19;;;-4.03
49593;BMP280;35499;51.482;4.264;2024-01-10T04:37:07;102921.34;;;-4.04
49593;BMP280;35499;51.482;4.264;2024-01-10T04:39:33;102917.94;;;-4.04
49593;BMP280;35499;51.482;4.264;2024-01-10T04:41:58;102918.81;;;-4.04
49593;BMP280;35499;51.482;4.264;2024-01-10T04:44:24;102917.06;;;-4.05
49593;BMP280;35499;51.482;4.264;2024-01-10T04:46:49;102919.59;;;-4.05
49593;BMP280;35499;51.482;4.264;2024-01-10T04:49:14;102903.53;;;-4.07
49593;BMP280;35499;51.482;4.264;2024-01-10T04:51:40;102912.81;;;-4.06
49593;BMP280;35499;51.482;4.264;2024-01-10T04:54:05;102914.31;;;-4.08
49593;BMP280;35499;51.482;4.264;2024-01-10T04:56:30;102915.09;;;-4.09
49593;BMP280;35499;51.482;4.264;2024-01-10T04:58:56;102905.06;;;-4.09
49593;BMP280;35499;51.482;4.264;2024-01-10T05:01:21;102903.31;;;-4.10
49593;BMP280;35499;51.482;4.264;2024-01-10T05:03:46;102905.81;;;-4.10
49593;BMP280;35499;51.482;4.264;2024-01-10T05:06:12;102905.91;;;-4.08
49593;BMP280;35499;51.482;4.264;2024-01-10T05:08:37;102912.59;;;-4.09
49593;BMP280;35499;51.482;4.264;2024-01-10T05:11:02;102915.84;;;-4.10
49593;BMP280;35499;51.482;4.264;2024-01-10T05:13:28;102912.34;;;-4.11
49593;BMP280;35499;51.482;4.264;2024-01-10T05:15:53;102908.75;;;-4.15
49593;BMP280;35499;51.482;4.264;2024-01-10T05:18:20;102904.34;;;-4.17
49593;BMP280;35499;51.482;4.264;2024-01-10T05:20:46;102908.41;;;-4.19
49593;BMP280;35499;51.482;4.264;2024-01-10T05:23:11;102896.75;;;-4.19
49593;BMP280;35499;51.482;4.264;2024-01-10T05:25:36;102899.13;;;-4.20
49593;BMP280;35499;51.482;4.264;2024-01-10T05:28:01;102902.38;;;-4.21
49593;BMP280;35499;51.482;4.264;2024-01-10T05:30:27;102911.66;;;-4.20
49593;BMP280;35499;51.482;4.264;2024-01-10T05:32:52;102909.91;;;-4.21
49593;BMP280;35499;51.482;4.264;2024-01-10T05:35:17;102907.41;;;-4.21
49593;BMP280;35499;51.482;4.264;2024-01-10T05:37:43;102899.13;;;-4.20
49593;BMP280;35499;51.482;4.264;2024-01-10T05:40:09;102905.78;;;-4.21
49593;BMP280;35499;51.482;4.264;2024-01-10T05:42:34;102893.97;;;-4.22
49593;BMP280;35499;51.482;4.264;2024-01-10T05:45:00;102907.28;;;-4.23
49593;BMP280;35499;51.482;4.264;2024-01-10T05:47:27;102905.44;;;-4.25
49593;BMP280;35499;51.482;4.264;2024-01-10T05:49:53;102907.94;;;-4.25
49593;BMP280;35499;51.482;4.264;2024-01-10T05:52:19;102913.69;;;-4.26
49593;BMP280;35499;51.482;4.264;2024-01-10T05:54:44;102911.94;;;-4.27
49593;BMP280;35499;51.482;4.264;2024-01-10T05:57:10;102918.50;;;-4.29
49593;BMP280;35499;51.482;4.264;2024-01-10T05:59:35;102909.09;;;-4.31
49593;BMP280;35499;51.482;4.264;2024-01-10T06:02:02;102905.84;;;-4.30
49593;BMP280;35499;51.482;4.264;2024-01-10T06:04:27;102908.34;;;-4.30
49593;BMP280;35499;51.482;4.264;2024-01-10T06:06:56;102906.59;;;-4.31
49593;BMP280;35499;51.482;4.264;2024-01-10T06:09:22;102907.47;;;-4.31
49593;BMP280;35499;51.482;4.264;2024-01-10T06:11:48;102899.72;;;-4.34
49593;BMP280;35499;51.482;4.264;2024-01-10T06:14:13;102907.25;;;-4.34
49593;BMP280;35499;51.482;4.264;2024-01-10T06:16:38;102901.22;;;-4.36
49593;BMP280;35499;51.482;4.264;2024-01-10T06:19:05;102907.00;;;-4.37
49593;BMP280;35499;51.482;4.264;2024-01-10T06:21:30;102894.47;;;-4.37
49593;BMP280;35499;51.482;4.264;2024-01-10T06:23:55;102905.50;;;-4.35
49593;BMP280;35499;51.482;4.264;2024-01-10T06:26:21;102911.25;;;-4.36
49593;BMP280;35499;51.482;4.264;2024-01-10T06:28:47;102908.53;;;-4.39
49593;BMP280;35499;51.482;4.264;2024-01-10T06:31:12;102905.91;;;-4.40
49593;BMP280;35499;51.482;4.264;2024-01-10T06:33:38;102910.78;;;-4.42
49593;BMP280;35499;51.482;4.264;2024-01-10T06:36:03;102907.31;;;-4.44
49593;BMP280;35499;51.482;4.264;2024-01-10T06:38:28;102913.06;;;-4.45
49593;BMP280;35499;51.482;4.264;2024-01-10T06:40:54;102906.44;;;-4.44
49593;BMP280;35499;51.482;4.264;2024-01-10T06:43:19;102914.84;;;-4.44
49593;BMP280;35499;51.482;4.264;2024-01-10T06:45:44;102913.16;;;-4.43
49593;BMP280;35499;51.482;4.264;2024-01-10T06:48:10;102915.69;;;-4.43
49593;BMP280;35499;51.482;4.264;2024-01-10T06:50:36;102907.94;;;-4.46
49593;BMP280;35499;51.482;4.264;2024-01-10T06:53:01;102902.91;;;-4.46
49593;BMP280;35499;51.482;4.264;2024-01-10T06:55:27;102901.06;;;-4.48
49593;BMP280;35499;51.482;4.264;2024-01-10T06:57:54;102898.31;;;-4.51
49593;BMP280;35499;51.482;4.264;2024-01-10T07:00:22;102903.09;;;-4.54
49593;BMP280;35499;51.482;4.264;2024-01-10T07:02:47;102903.84;;;-4.55
49593;BMP280;35499;51.482;4.264;2024-01-10T07:05:14;102904.38;;;-4.59
49593;BMP280;35499;51.482;4.264;2024-01-10T07:07:39;102898.16;;;-4.64
49593;BMP280;35499;51.482;4.264;2024-01-10T07:10:05;102900.53;;;-4.65
49593;BMP280;35499;51.482;4.264;2024-01-10T07:12:31;102904.66;;;-4.66
49593;BMP280;35499;51.482;4.264;2024-01-10T07:14:57;102910.41;;;-4.67
49593;BMP280;35499;51.482;4.264;2024-01-10T07:17:22;102914.69;;;-4.66
49593;BMP280;35499;51.482;4.264;2024-01-10T07:19:48;102911.16;;;-4.68
49593;BMP280;35499;51.482;4.264;2024-01-10T07:22:13;102907.81;;;-4.68
49593;BMP280;35499;51.482;4.264;2024-01-10T07:24:39;102913.69;;;-4.68
49593;BMP280;35499;51.482;4.264;2024-01-10T07:27:04;102904.44;;;-4.69
49593;BMP280;35499;51.482;4.264;2024-01-10T07:29:30;102915.97;;;-4.71
49593;BMP280;35499;51.482;4.264;2024-01-10T07:31:56;102915.34;;;-4.68
49593;BMP280;35499;51.482;4.264;2024-01-10T07:34:22;102921.31;;;-4.66
49593;BMP280;35499;51.482;4.264;2024-01-10T07:36:47;102911.16;;;-4.68
49593;BMP280;35499;51.482;4.264;2024-01-10T07:39:12;102910.41;;;-4.67
49593;BMP280;35499;51.482;4.264;2024-01-10T07:41:41;102913.47;;;-4.71
49593;BMP280;35499;51.482;4.264;2024-01-10T07:44:07;102916.72;;;-4.72
49593;BMP280;35499;51.482;4.264;2024-01-10T07:46:34;102905.72;;;-4.74
49593;BMP280;35499;51.482;4.264;2024-01-10T07:48:59;102908.22;;;-4.74
49593;BMP280;35499;51.482;4.264;2024-01-10T07:51:25;102907.44;;;-4.73
49593;BMP280;35499;51.482;4.264;2024-01-10T07:53:51;102901.69;;;-4.72
49593;BMP280;35499;51.482;4.264;2024-01-10T07:56:16;102892.53;;;-4.71
49593;BMP280;35499;51.482;4.264;2024-01-10T07:58:41;102901.81;;;-4.70
49593;BMP280;35499;51.482;4.264;2024-01-10T08:01:07;102897.53;;;-4.71
49593;BMP280;35499;51.482;4.264;2024-01-10T08:03:32;102894.16;;;-4.72
49593;BMP280;35499;51.482;4.264;2024-01-10T08:05:58;102896.66;;;-4.72
49593;BMP280;35499;51.482;4.264;2024-01-10T08:08:24;102893.41;;;-4.71
49593;BMP280;35499;51.482;4.264;2024-01-10T08:10:49;102900.31;;;-4.68
49593;BMP280;35499;51.482;4.264;2024-01-10T08:13:14;102897.91;;;-4.67
49593;BMP280;35499;51.482;4.264;2024-01-10T08:15:40;102907.16;;;-4.66
49593;BMP280;35499;51.482;4.264;2024-01-10T08:18:06;102914.06;;;-4.64
49593;BMP280;35499;51.482;4.264;2024-01-10T08:20:32;102912.66;;;-4.60
49593;BMP280;35499;51.482;4.264;2024-01-10T08:22:58;102912.88;;;-4.57
49593;BMP280;35499;51.482;4.264;2024-01-10T08:25:23;102914.88;;;-4.53
49593;BMP280;35499;51.482;4.264;2024-01-10T08:27:48;102927.78;;;-4.49
49593;BMP280;35499;51.482;4.264;2024-01-10T08:30:14;102919.72;;;-4.45
49593;BMP280;35499;51.482;4.264;2024-01-10T08:32:40;102929.09;;;-4.43
49593;BMP280;35499;51.482;4.264;2024-01-10T08:35:05;102921.06;;;-4.39
49593;BMP280;35499;51.482;4.264;2024-01-10T08:37:32;102928.06;;;-4.35
49593;BMP280;35499;51.482;4.264;2024-01-10T08:39:58;102924.00;;;-4.33
49593;BMP280;35499;51.482;4.264;2024-01-10T08:42:25;102926.03;;;-4.29
49593;BMP280;35499;51.482;4.264;2024-01-10T08:44:50;102923.72;;;-4.26
49593;BMP280;35499;51.482;4.264;2024-01-10T08:47:16;102928.22;;;-4.22
49593;BMP280;35499;51.482;4.264;2024-01-10T08:49:41;102929.44;;;-4.17
49593;BMP280;35499;51.482;4.264;2024-01-10T08:52:06;102927.28;;;-4.13
49593;BMP280;35499;51.482;4.264;2024-01-10T08:54:33;102925.13;;;-4.09
49593;BMP280;35499;51.482;4.264;2024-01-10T08:56:59;102915.53;;;-4.03
49593;BMP280;35499;51.482;4.264;2024-01-10T08:59:25;102918.38;;;-3.98
49593;BMP280;35499;51.482;4.264;2024-01-10T09:01:52;102929.66;;;-3.93
49593;BMP280;35499;51.482;4.264;2024-01-10T09:04:18;102918.22;;;-3.90
49593;BMP280;35499;51.482;4.264;2024-01-10T09:06:45;102913.53;;;-3.86
49593;BMP280;35499;51.482;4.264;2024-01-10T09:09:10;102925.53;;;-3.82
49593;BMP280;35499;51.482;4.264;2024-01-10T09:11:36;102924.25;;;-3.77
49593;BMP280;35499;51.482;4.264;2024-01-10T09:14:01;102928.84;;;-3.72
49593;BMP280;35499;51.482;4.264;2024-01-10T09:16:26;102910.84;;;-3.66
49593;BMP280;35499;51.482;4.264;2024-01-10T09:18:52;102907.78;;;-3.62
49593;BMP280;35499;51.482;4.264;2024-01-10T09:21:21;102904.72;;;-3.58
49593;BMP280;35499;51.482;4.264;2024-01-10T09:23:47;102898.31;;;-3.55
49593;BMP280;35499;51.482;4.264;2024-01-10T09:26:16;102902.81;;;-3.51
49593;BMP280;35499;51.482;4.264;2024-01-10T09:28:41;102893.41;;;-3.42
49593;BMP280;35499;51.482;4.264;2024-01-10T09:31:06;102907.19;;;-3.38
49593;BMP280;35499;51.482;4.264;2024-01-10T09:33:32;102904.97;;;-3.33
49593;BMP280;35499;51.482;4.264;2024-01-10T09:35:57;102915.50;;;-3.16
49593;BMP280;35499;51.482;4.264;2024-01-10T09:38:23;102927.78;;;-2.52
49593;BMP280;35499;51.482;4.264;2024-01-10T09:40:48;102918.94;;;-1.26
49593;BMP280;35499;51.482;4.264;2024-01-10T09:43:14;102910.38;;;0.01
49593;BMP280;35499;51.482;4.264;2024-01-10T09:45:43;102902.41;;;1.07
49593;BMP280;35499;51.482;4.264;2024-01-10T09:48:13;102906.50;;;1.95
49593;BMP280;35499;51.482;4.264;2024-01-10T09:50:38;102909.31;;;2.63
49593;BMP280;35499;51.482;4.264;2024-01-10T09:53:07;102915.13;;;3.46
49593;BMP280;35499;51.482;4.264;2024-01-10T09:55:36;102903.38;;;4.02
49593;BMP280;35499;51.482;4.264;2024-01-10T09:58:04;102898.25;;;4.20
49593;BMP280;35499;51.482;4.264;2024-01-10T10:04:33;102897.44;;;4.98
49593;BMP280;35499;51.482;4.264;2024-01-10T10:06:59;102902.22;;;5.32
49593;BMP280;35499;51.482;4.264;2024-01-10T10:09:26;102887.97;;;5.58
49593;BMP280;35499;51.482;4.264;2024-01-10T10:11:55;102884.00;;;5.23
49593;BMP280;35499;51.482;4.264;2024-01-10T10:14:20;102886.34;;;5.39
49593;BMP280;35499;51.482;4.264;2024-01-10T10:16:46;102885.44;;;5.80
49593;BMP280;35499;51.482;4.264;2024-01-10T10:19:11;102882.53;;;5.92
49593;BMP280;35499;51.482;4.264;2024-01-10T10:21:38;102883.63;;;6.22
49593;BMP280;35499;51.482;4.264;2024-01-10T10:24:04;102874.06;;;6.16
49593;BMP280;35499;51.482;4.264;2024-01-10T10:26:32;102889.13;;;6.33
49593;BMP280;35499;51.482;4.264;2024-01-10T10:28:58;102871.81;;;6.72
49593;BMP280;35499;51.482;4.264;2024-01-10T10:31:24;102881.22;;;6.99
49593;BMP280;35499;51.482;4.264;2024-01-10T10:33:50;102864.28;;;7.02
49593;BMP280;35499;51.482;4.264;2024-01-10T10:36:16;102871.16;;;7.58
49593;BMP280;35499;51.482;4.264;2024-01-10T10:38:42;102873.03;;;8.19
49593;BMP280;35499;51.482;4.264;2024-01-10T10:41:07;102864.06;;;8.34
49593;BMP280;35499;51.482;4.264;2024-01-10T10:43:37;102876.50;;;8.21
49593;BMP280;35499;51.482;4.264;2024-01-10T10:46:12;102872.34;;;7.68
49593;BMP280;35499;51.482;4.264;2024-01-10T10:48:38;102868.03;;;7.66
49593;BMP280;35499;51.482;4.264;2024-01-10T10:51:10;102854.13;;;7.87
49593;BMP280;35499;51.482;4.264;2024-01-10T10:53:37;102857.94;;;7.99
49593;BMP280;35499;51.482;4.264;2024-01-10T10:56:05;102871.09;;;7.84
49593;BMP280;35499;51.482;4.264;2024-01-10T10:58:35;102861.44;;;8.01
49593;BMP280;35499;51.482;4.264;2024-01-10T11:01:03;102856.09;;;8.24
49593;BMP280;35499;51.482;4.264;2024-01-10T11:03:30;102861.72;;;8.41
49593;BMP280;35499;51.482;4.264;2024-01-10T11:05:58;102858.94;;;8.66
49593;BMP280;35499;51.482;4.264;2024-01-10T11:08:24;102848.25;;;8.83
49593;BMP280;35499;51.482;4.264;2024-01-10T11:10:50;102848.22;;;9.14
49593;BMP280;35499;51.482;4.264;2024-01-10T11:16:11;102839.44;;;9.43
49593;BMP280;35499;51.482;4.264;2024-01-10T11:22:03;102838.69;;;9.84
49593;BMP280;35499;51.482;4.264;2024-01-10T11:24:33;102827.63;;;9.88
49593;BMP280;35499;51.482;4.264;2024-01-10T11:27:12;102830.81;;;9.77
49593;BMP280;35499;51.482;4.264;2024-01-10T11:29:39;102825.44;;;10.05
49593;BMP280;35499;51.482;4.264;2024-01-10T11:32:06;102814.53;;;10.64
49593;BMP280;35499;51.482;4.264;2024-01-10T11:34:31;102814.34;;;11.06
49593;BMP280;35499;51.482;4.264;2024-01-10T11:37:15;102825.03;;;10.28
49593;BMP280;35499;51.482;4.264;2024-01-10T11:39:44;102821.19;;;10.06
49593;BMP280;35499;51.482;4.264;2024-01-10T11:42:09;102807.75;;;10.21
49593;BMP280;35499;51.482;4.264;2024-01-10T11:44:46;102797.94;;;10.45
49593;BMP280;35499;51.482;4.264;2024-01-10T11:47:13;102796.97;;;10.89
49593;BMP280;35499;51.482;4.264;2024-01-10T11:49:40;102803.59;;;11.29
49593;BMP280;35499;51.482;4.264;2024-01-10T11:52:05;102803.28;;;11.11
49593;BMP280;35499;51.482;4.264;2024-01-10T11:54:44;102800.50;;;11.53
49593;BMP280;35499;51.482;4.264;2024-01-10T11:57:11;102793.19;;;11.84
49593;BMP280;35499;51.482;4.264;2024-01-10T11:59:37;102784.00;;;12.11
49593;BMP280;35499;51.482;4.264;2024-01-10T12:02:03;102784.00;;;12.11
49593;BMP280;35499;51.482;4.264;2024-01-10T12:04:31;102779.72;;;12.11
49593;BMP280;35499;51.482;4.264;2024-01-10T12:06:57;102777.19;;;12.16
49593;BMP280;35499;51.482;4.264;2024-01-10T12:09:23;102779.50;;;11.89
49593;BMP280;35499;51.482;4.264;2024-01-10T12:11:50;102783.88;;;11.29
49593;BMP280;35499;51.482;4.264;2024-01-10T12:14:16;102783.78;;;11.26
49593;BMP280;35499;51.482;4.264;2024-01-10T12:16:42;102776.72;;;11.09
49593;BMP280;35499;51.482;4.264;2024-01-10T12:19:08;102776.69;;;11.08
49593;BMP280;35499;51.482;4.264;2024-01-10T12:21:33;102758.06;;;11.26
49593;BMP280;35499;51.482;4.264;2024-01-10T12:23:59;102753.75;;;11.23
49593;BMP280;35499;51.482;4.264;2024-01-10T12:26:24;102757.78;;;11.06
49593;BMP280;35499;51.482;4.264;2024-01-10T12:28:57;102754.88;;;10.83
49593;BMP280;35499;51.482;4.264;2024-01-10T12:31:24;102756.97;;;10.54
49593;BMP280;35499;51.482;4.264;2024-01-10T12:33:50;102757.44;;;10.31
49593;BMP280;35499;51.482;4.264;2024-01-10T12:36:17;102756.81;;;10.45
49593;BMP280;35499;51.482;4.264;2024-01-10T12:38:43;102763.84;;;10.55
49593;BMP280;35499;51.482;4.264;2024-01-10T12:41:14;102758.28;;;10.82
49593;BMP280;35499;51.482;4.264;2024-01-10T12:43:40;102756.00;;;11.01
49593;BMP280;35499;51.482;4.264;2024-01-10T12:46:09;102756.06;;;11.05
49593;BMP280;35499;51.482;4.264;2024-01-10T12:48:40;102755.66;;;10.79
49593;BMP280;35499;51.482;4.264;2024-01-10T12:51:12;102754.66;;;10.71
49593;BMP280;35499;51.482;4.264;2024-01-10T12:53:44;102752.91;;;10.67
49593;BMP280;35499;51.482;4.264;2024-01-10T12:56:10;102748.22;;;10.43
49593;BMP280;35499;51.482;4.264;2024-01-10T12:58:40;102745.00;;;10.05
49593;BMP280;35499;51.482;4.264;2024-01-10T13:01:08;102752.44;;;9.51
49593;BMP280;35499;51.482;4.264;2024-01-10T13:03:33;102752.72;;;9.24
49593;BMP280;35499;51.482;4.264;2024-01-10T13:05:58;102764.44;;;9.13
49593;BMP280;35499;51.482;4.264;2024-01-10T13:08:24;102756.84;;;9.18
49593;BMP280;35499;51.482;4.264;2024-01-10T13:10:49;102748.38;;;9.20
49593;BMP280;35499;51.482;4.264;2024-01-10T13:13:15;102751.06;;;9.26
49593;BMP280;35499;51.482;4.264;2024-01-10T13:15:41;102742.50;;;9.26
49593;BMP280;35499;51.482;4.264;2024-01-10T13:18:07;102743.06;;;9.13
49593;BMP280;35499;51.482;4.264;2024-01-10T13:20:35;102743.47;;;8.93
49593;BMP280;35499;51.482;4.264;2024-01-10T13:23:00;102751.69;;;8.79
49593;BMP280;35499;51.482;4.264;2024-01-10T13:25:26;102748.91;;;8.70
49593;BMP280;35499;51.482;4.264;2024-01-10T13:27:52;102754.97;;;8.74
49593;BMP280;35499;51.482;4.264;2024-01-10T13:30:18;65714.75;;;-132.16
49593;BMP280;35499;51.482;4.264;2024-01-10T13:32:45;65714.75;;;-132.16
49593;BMP280;35499;51.482;4.264;2024-01-10T13:35:12;65714.75;;;-132.16
49593;BMP280;35499;51.482;4.264;2024-01-10T13:37:39;65714.75;;;-132.16
49593;BMP280;35499;51.482;4.264;2024-01-10T13:40:04;65714.75;;;-132.16
49593;BMP280;35499;51.482;4.264;2024-01-10T13:42:31;65714.75;;;-132.16
49593;BMP280;35499;51.482;4.264;2024-01-10T13:44:58;65714.75;;;-132.16
49593;BMP280;35499;51.482;4.264;2024-01-10T13:47:23;65714.75;;;-132.16
49593;BMP280;35499;51.482;4.264;2024-01-10T13:49:48;65714.75;;;-132.16
49593;BMP280;35499;51.482;4.264;2024-01-10T13:52:13;65714.75;;;-132.16
49593;BMP280;35499;51.482;4.264;2024-01-10T13:54:39;65714.75;;;-132.16
49593;BMP280;35499;51.482;4.264;2024-01-10T13:57:04;65714.75;;;-132.16
49593;BMP280;35499;51.482;4.264;2024-01-10T13:59:30;65714.75;;;-132.16
49593;BMP280;35499;51.482;4.264;2024-01-10T14:01:55;65714.75;;;-132.16